sensor_id;sensor_type;location;lat;lon;timestamp;pressure;altitude;pressure_sealevel;temperature;humidity
63731;BME280;49747;51.334;6.830;2023-02-11T00:00:15;102942.66;;;10.89;70.24
63731;BME280;49747;51.334;6.830;2023-02-11T00:02:42;102939.22;;;10.87;70.23
63731;BME280;49747;51.334;6.830;2023-02-11T00:05:13;102935.72;;;10.84;70.28
63731;BME280;49747;51.334;6.830;2023-02-11T00:07:39;102924.19;;;10.85;70.65
63731;BME280;49747;51.334;6.830;2023-02-11T00:10:06;102929.53;;;10.85;70.81
63731;BME280;49747;51.334;6.830;2023-02-11T00:12:34;102932.19;;;10.85;71.21
63731;BME280;49747;51.334;6.830;2023-02-11T00:15:01;102932.19;;;10.85;71.15
63731;BME280;49747;51.334;6.830;2023-02-11T00:17:28;102932.19;;;10.85;70.91
63731;BME280;49747;51.334;6.830;2023-02-11T00:19:55;102924.13;;;10.87;71.06
63731;BME280;49747;51.334;6.830;2023-02-11T00:22:21;102916.22;;;10.85;70.91
63731;BME280;49747;51.334;6.830;2023-02-11T00:24:48;102911.81;;;10.84;71.18
63731;BME280;49747;51.334;6.830;2023-02-11T00:27:14;102904.66;;;10.87;71.13
63731;BME280;49747;51.334;6.830;2023-02-11T00:29:42;102890.53;;;10.84;71.20
63731;BME280;49747;51.334;6.830;2023-02-11T00:32:09;102899.25;;;10.88;70.74
63731;BME280;49747;51.334;6.830;2023-02-11T00:34:36;102896.00;;;10.81;71.14
63731;BME280;49747;51.334;6.830;2023-02-11T00:37:04;102889.09;;;10.76;71.21
63731;BME280;49747;51.334;6.830;2023-02-11T00:39:31;102917.94;;;10.87;71.58
63731;BME280;49747;51.334;6.830;2023-02-11T00:41:57;102915.28;;;10.87;71.21
63731;BME280;49747;51.334;6.830;2023-02-11T00:44:25;102921.47;;;10.87;72.06
63731;BME280;49747;51.334;6.830;2023-02-11T00:46:52;102918.75;;;10.89;71.80
63731;BME280;49747;51.334;6.830;2023-02-11T00:49:18;102910.94;;;10.84;71.84
63731;BME280;49747;51.334;6.830;2023-02-11T00:51:47;102911.69;;;10.88;72.51
63731;BME280;49747;51.334;6.830;2023-02-11T00:54:13;102911.50;;;10.92;72.10
63731;BME280;49747;51.334;6.830;2023-02-11T00:56:40;102880.81;;;10.83;71.71
63731;BME280;49747;51.334;6.830;2023-02-11T00:59:06;102898.22;;;10.92;71.98
63731;BME280;49747;51.334;6.830;2023-02-11T01:01:33;102885.78;;;10.93;71.46
63731;BME280;49747;51.334;6.830;2023-02-11T01:04:01;102887.53;;;10.94;72.08
63731;BME280;49747;51.334;6.830;2023-02-11T01:06:27;102890.13;;;10.95;71.80
63731;BME280;49747;51.334;6.830;2023-02-11T01:08:54;102898.16;;;10.94;71.34
63731;BME280;49747;51.334;6.830;2023-02-11T01:11:20;102898.97;;;10.96;71.45
63731;BME280;49747;51.334;6.830;2023-02-11T01:13:48;102909.59;;;10.96;71.45
63731;BME280;49747;51.334;6.830;2023-02-11T01:16:16;102900.88;;;10.92;71.35
63731;BME280;49747;51.334;6.830;2023-02-11T01:18:44;102905.09;;;10.98;72.13
63731;BME280;49747;51.334;6.830;2023-02-11T01:21:11;102906.16;;;10.94;71.33
63731;BME280;49747;51.334;6.830;2023-02-11T01:23:38;102905.31;;;10.92;71.57
63731;BME280;49747;51.334;6.830;2023-02-11T01:26:05;102907.75;;;10.98;72.17
63731;BME280;49747;51.334;6.830;2023-02-11T01:28:32;102905.91;;;11.00;72.89
63731;BME280;49747;51.334;6.830;2023-02-11T01:31:00;102897.91;;;11.00;72.45
63731;BME280;49747;51.334;6.830;2023-02-11T01:33:27;102905.91;;;11.00;72.46
63731;BME280;49747;51.334;6.830;2023-02-11T01:35:54;102905.97;;;10.98;72.30
63731;BME280;49747;51.334;6.830;2023-02-11T01:38:24;102912.16;;;10.99;71.57
63731;BME280;49747;51.334;6.830;2023-02-11T01:40:56;102921.91;;;10.98;71.52
63731;BME280;49747;51.334;6.830;2023-02-11T01:43:24;102925.38;;;11.00;71.55
63731;BME280;49747;51.334;6.830;2023-02-11T01:45:58;102935.97;;;11.02;71.74
63731;BME280;49747;51.334;6.830;2023-02-11T01:48:32;102925.44;;;10.99;71.58
63731;BME280;49747;51.334;6.830;2023-02-11T01:51:27;102912.91;;;11.02;71.76
63731;BME280;49747;51.334;6.830;2023-02-11T01:53:56;102900.66;;;10.98;71.58
63731;BME280;49747;51.334;6.830;2023-02-11T01:56:46;102910.25;;;11.02;71.72
63731;BME280;49747;51.334;6.830;2023-02-11T01:59:40;102909.22;;;11.05;71.42
63731;BME280;49747;51.334;6.830;2023-02-11T02:02:11;102897.88;;;11.01;71.85
63731;BME280;49747;51.334;6.830;2023-02-11T02:04:54;102895.94;;;11.05;71.75
63731;BME280;49747;51.334;6.830;2023-02-11T02:07:31;102894.16;;;11.05;71.37
63731;BME280;49747;51.334;6.830;2023-02-11T02:10:05;102877.47;;;11.02;71.77
63731;BME280;49747;51.334;6.830;2023-02-11T02:12:34;102877.47;;;11.02;71.57
63731;BME280;49747;51.334;6.830;2023-02-11T02:15:22;102883.56;;;11.04;72.44
63731;BME280;49747;51.334;6.830;2023-02-11T02:17:57;102878.38;;;11.01;71.76
63731;BME280;49747;51.334;6.830;2023-02-11T02:20:55;102889.81;;;11.03;71.18
63731;BME280;49747;51.334;6.830;2023-02-11T02:34:49;102872.88;;;11.05;71.08
63731;BME280;49747;51.334;6.830;2023-02-11T02:37:29;102862.28;;;11.04;71.44
63731;BME280;49747;51.334;6.830;2023-02-11T02:40:02;102867.59;;;11.04;71.84
63731;BME280;49747;51.334;6.830;2023-02-11T02:42:30;102873.78;;;11.04;71.56
63731;BME280;49747;51.334;6.830;2023-02-11T02:44:58;102877.38;;;11.03;71.61
63731;BME280;49747;51.334;6.830;2023-02-11T02:47:24;102874.78;;;11.02;72.07
63731;BME280;49747;51.334;6.830;2023-02-11T02:49:51;102873.97;;;11.00;72.33
63731;BME280;49747;51.334;6.830;2023-02-11T02:52:33;102876.63;;;11.00;73.27
63731;BME280;49747;51.334;6.830;2023-02-11T02:55:23;102863.41;;;10.98;72.65
63731;BME280;49747;51.334;6.830;2023-02-11T03:03:22;102876.72;;;10.98;73.69
63731;BME280;49747;51.334;6.830;2023-02-11T03:08:41;102851.22;;;10.93;72.40
63731;BME280;49747;51.334;6.830;2023-02-11T03:11:09;102854.63;;;10.96;72.83
63731;BME280;49747;51.334;6.830;2023-02-11T03:13:38;102835.13;;;10.96;73.11
63731;BME280;49747;51.334;6.830;2023-02-11T03:16:16;102822.09;;;10.90;73.35
63731;BME280;49747;51.334;6.830;2023-02-11T03:18:49;102827.28;;;10.93;73.03
63731;BME280;49747;51.334;6.830;2023-02-11T03:21:17;102828.22;;;10.92;72.65
63731;BME280;49747;51.334;6.830;2023-02-11T03:23:52;102825.56;;;10.92;73.07
63731;BME280;49747;51.334;6.830;2023-02-11T03:26:31;102832.66;;;10.91;74.30
63731;BME280;49747;51.334;6.830;2023-02-11T03:32:24;102847.69;;;10.92;74.60
63731;BME280;49747;51.334;6.830;2023-02-11T03:37:32;102853.06;;;10.91;74.21
63731;BME280;49747;51.334;6.830;2023-02-11T03:40:06;102842.56;;;10.88;74.04
63731;BME280;49747;51.334;6.830;2023-02-11T03:42:41;102854.91;;;10.89;74.57
63731;BME280;49747;51.334;6.830;2023-02-11T03:45:11;102848.63;;;10.91;74.19
63731;BME280;49747;51.334;6.830;2023-02-11T03:47:43;102845.22;;;10.88;73.67
63731;BME280;49747;51.334;6.830;2023-02-11T03:50:13;102853.88;;;10.93;73.69
63731;BME280;49747;51.334;6.830;2023-02-11T03:52:41;102845.09;;;10.91;74.14
63731;BME280;49747;51.334;6.830;2023-02-11T03:55:12;102839.78;;;10.91;73.95
63731;BME280;49747;51.334;6.830;2023-02-11T03:57:40;102832.66;;;10.91;73.78
63731;BME280;49747;51.334;6.830;2023-02-11T04:00:08;102842.38;;;10.92;73.83
63731;BME280;49747;51.334;6.830;2023-02-11T04:02:38;102829.22;;;10.89;73.97
63731;BME280;49747;51.334;6.830;2023-02-11T04:05:07;102820.31;;;10.90;73.85
63731;BME280;49747;51.334;6.830;2023-02-11T04:07:33;102832.56;;;10.94;73.32
63731;BME280;49747;51.334;6.830;2023-02-11T04:10:00;102822.09;;;10.90;76.01
63731;BME280;49747;51.334;6.830;2023-02-11T04:12:26;102825.56;;;10.92;76.72
63731;BME280;49747;51.334;6.830;2023-02-11T04:14:53;102822.88;;;10.92;74.35
63731;BME280;49747;51.334;6.830;2023-02-11T04:17:20;102820.19;;;10.93;74.71
63731;BME280;49747;51.334;6.830;2023-02-11T04:19:46;102824.63;;;10.93;74.37
63731;BME280;49747;51.334;6.830;2023-02-11T04:22:13;102807.00;;;10.90;74.57
63731;BME280;49747;51.334;6.830;2023-02-11T04:24:40;102826.41;;;10.92;74.15
63731;BME280;49747;51.334;6.830;2023-02-11T04:27:06;102829.81;;;10.96;73.59
63731;BME280;49747;51.334;6.830;2023-02-11T04:29:33;102820.03;;;10.96;73.88
63731;BME280;49747;51.334;6.830;2023-02-11T04:32:00;102824.47;;;10.97;74.22
63731;BME280;49747;51.334;6.830;2023-02-11T04:34:27;102823.72;;;10.94;74.00
63731;BME280;49747;51.334;6.830;2023-02-11T04:36:53;102833.53;;;10.92;75.91
63731;BME280;49747;51.334;6.830;2023-02-11T04:39:20;102841.47;;;10.93;74.02
63731;BME280;49747;51.334;6.830;2023-02-11T04:41:47;102854.69;;;10.95;75.78
63731;BME280;49747;51.334;6.830;2023-02-11T04:44:13;102852.03;;;10.95;74.75
63731;BME280;49747;51.334;6.830;2023-02-11T04:46:40;102852.09;;;10.93;75.19
63731;BME280;49747;51.334;6.830;2023-02-11T04:49:06;102845.03;;;10.92;74.96
63731;BME280;49747;51.334;6.830;2023-02-11T04:51:33;102847.56;;;10.95;75.03
63731;BME280;49747;51.334;6.830;2023-02-11T04:54:00;102851.22;;;10.93;74.75
63731;BME280;49747;51.334;6.830;2023-02-11T04:56:26;102860.88;;;10.95;74.39
63731;BME280;49747;51.334;6.830;2023-02-11T04:58:53;102850.34;;;10.92;74.91
63731;BME280;49747;51.334;6.830;2023-02-11T05:01:19;102840.53;;;10.94;74.94
63731;BME280;49747;51.334;6.830;2023-02-11T05:03:46;102827.47;;;10.88;75.09
63731;BME280;49747;51.334;6.830;2023-02-11T05:06:13;102846.53;;;10.99;74.35
63731;BME280;49747;51.334;6.830;2023-02-11T05:08:40;102849.19;;;10.99;74.57
63731;BME280;49747;51.334;6.830;2023-02-11T05:11:07;102848.31;;;10.99;75.09
63731;BME280;49747;51.334;6.830;2023-02-11T05:13:39;102844.78;;;10.98;75.31
63731;BME280;49747;51.334;6.830;2023-02-11T05:16:06;102845.66;;;10.99;74.55
63731;BME280;49747;51.334;6.830;2023-02-11T05:18:32;102837.69;;;10.99;75.03
63731;BME280;49747;51.334;6.830;2023-02-11T05:21:05;102834.09;;;11.00;75.20
63731;BME280;49747;51.334;6.830;2023-02-11T05:23:31;102828.84;;;10.98;74.70
63731;BME280;49747;51.334;6.830;2023-02-11T05:25:59;102826.97;;;11.00;74.64
63731;BME280;49747;51.334;6.830;2023-02-11T05:28:26;102835.81;;;11.01;74.92
63731;BME280;49747;51.334;6.830;2023-02-11T05:30:53;102844.72;;;11.00;75.64
63731;BME280;49747;51.334;6.830;2023-02-11T05:33:20;102850.91;;;11.00;76.18
63731;BME280;49747;51.334;6.830;2023-02-11T05:35:47;102844.69;;;11.01;75.59
63731;BME280;49747;51.334;6.830;2023-02-11T05:38:14;102843.75;;;11.02;75.57
63731;BME280;49747;51.334;6.830;2023-02-11T05:40:41;102833.16;;;11.01;75.81
63731;BME280;49747;51.334;6.830;2023-02-11T05:43:08;102830.38;;;11.04;75.73
63731;BME280;49747;51.334;6.830;2023-02-11T05:45:35;102824.13;;;11.05;75.93
63731;BME280;49747;51.334;6.830;2023-02-11T05:48:02;102817.03;;;11.05;76.27
63731;BME280;49747;51.334;6.830;2023-02-11T05:50:29;102813.47;;;11.05;76.25
63731;BME280;49747;51.334;6.830;2023-02-11T05:52:55;102816.09;;;11.06;75.86
63731;BME280;49747;51.334;6.830;2023-02-11T05:55:22;102816.22;;;11.03;76.31
63731;BME280;49747;51.334;6.830;2023-02-11T05:57:49;102823.31;;;11.03;76.45
63731;BME280;49747;51.334;6.830;2023-02-11T06:00:16;102813.75;;;10.99;76.30
63731;BME280;49747;51.334;6.830;2023-02-11T06:02:42;102831.22;;;11.04;76.54
63731;BME280;49747;51.334;6.830;2023-02-11T06:05:10;102826.94;;;11.02;76.88
63731;BME280;49747;51.334;6.830;2023-02-11T06:07:36;102826.94;;;11.02;76.86
63731;BME280;49747;51.334;6.830;2023-02-11T06:10:03;102832.91;;;11.07;76.63
63731;BME280;49747;51.334;6.830;2023-02-11T06:12:30;102826.78;;;11.05;76.41
63731;BME280;49747;51.334;6.830;2023-02-11T06:14:57;102825.00;;;11.05;76.84
63731;BME280;49747;51.334;6.830;2023-02-11T06:17:24;102824.13;;;11.05;76.70
63731;BME280;49747;51.334;6.830;2023-02-11T06:19:50;102826.97;;;11.00;76.87
63731;BME280;49747;51.334;6.830;2023-02-11T06:22:17;102831.50;;;10.98;77.21
63731;BME280;49747;51.334;6.830;2023-02-11T06:24:43;102832.28;;;11.00;77.31
63731;BME280;49747;51.334;6.830;2023-02-11T06:27:26;102822.78;;;10.95;77.02
63731;BME280;49747;51.334;6.830;2023-02-11T06:29:53;102831.38;;;11.01;76.91
63731;BME280;49747;51.334;6.830;2023-02-11T06:32:19;102825.25;;;10.99;76.97
63731;BME280;49747;51.334;6.830;2023-02-11T06:35:06;102830.50;;;11.01;76.89
63731;BME280;49747;51.334;6.830;2023-02-11T06:37:36;102834.03;;;11.01;77.27
63731;BME280;49747;51.334;6.830;2023-02-11T06:40:03;102826.22;;;10.97;77.12
63731;BME280;49747;51.334;6.830;2023-02-11T06:42:30;102833.28;;;10.98;77.04
63731;BME280;49747;51.334;6.830;2023-02-11T06:44:57;102825.31;;;10.98;77.39
63731;BME280;49747;51.334;6.830;2023-02-11T06:47:24;102831.44;;;11.00;77.29
63731;BME280;49747;51.334;6.830;2023-02-11T06:49:50;102834.03;;;11.01;77.14
63731;BME280;49747;51.334;6.830;2023-02-11T06:52:17;102828.75;;;11.00;77.43
63731;BME280;49747;51.334;6.830;2023-02-11T06:54:43;102822.69;;;10.96;77.11
63731;BME280;49747;51.334;6.830;2023-02-11T06:57:10;102828.03;;;10.96;76.92
63731;BME280;49747;51.334;6.830;2023-02-11T06:59:37;102832.28;;;11.00;77.16
63731;BME280;49747;51.334;6.830;2023-02-11T07:02:03;102838.47;;;11.01;77.64
63731;BME280;49747;51.334;6.830;2023-02-11T07:04:30;102835.03;;;10.99;77.36
63731;BME280;49747;51.334;6.830;2023-02-11T07:06:57;102829.69;;;10.99;77.09
63731;BME280;49747;51.334;6.830;2023-02-11T07:09:23;102840.16;;;11.03;76.76
63731;BME280;49747;51.334;6.830;2023-02-11T07:11:50;102847.25;;;11.03;76.66
63731;BME280;49747;51.334;6.830;2023-02-11T07:14:17;102855.25;;;11.03;76.56
63731;BME280;49747;51.334;6.830;2023-02-11T07:16:43;102849.06;;;11.02;77.74
63731;BME280;49747;51.334;6.830;2023-02-11T07:19:10;102852.66;;;11.01;77.86
63731;BME280;49747;51.334;6.830;2023-02-11T07:21:36;102851.75;;;11.01;76.99
63731;BME280;49747;51.334;6.830;2023-02-11T07:24:07;102854.31;;;11.04;77.28
63731;BME280;49747;51.334;6.830;2023-02-11T07:26:37;102854.31;;;11.04;77.72
63731;BME280;49747;51.334;6.830;2023-02-11T07:29:04;102851.84;;;10.99;77.00
63731;BME280;49747;51.334;6.830;2023-02-11T07:31:31;102859.59;;;11.05;77.28
63731;BME280;49747;51.334;6.830;2023-02-11T07:34:00;102867.56;;;11.05;77.74
63731;BME280;49747;51.334;6.830;2023-02-11T07:36:29;102859.59;;;11.05;78.01
63731;BME280;49747;51.334;6.830;2023-02-11T07:38:57;102867.59;;;11.04;77.28
63731;BME280;49747;51.334;6.830;2023-02-11T07:41:25;102863.22;;;11.03;77.63
63731;BME280;49747;51.334;6.830;2023-02-11T07:43:52;102877.31;;;11.05;77.63
63731;BME280;49747;51.334;6.830;2023-02-11T07:46:24;102873.78;;;11.04;77.21
63731;BME280;49747;51.334;6.830;2023-02-11T07:48:53;102878.22;;;11.05;77.92
63731;BME280;49747;51.334;6.830;2023-02-11T07:51:23;102876.41;;;11.06;77.46
63731;BME280;49747;51.334;6.830;2023-02-11T07:53:50;102878.13;;;11.07;77.27
63731;BME280;49747;51.334;6.830;2023-02-11T07:56:19;102879.00;;;11.07;77.50
63731;BME280;49747;51.334;6.830;2023-02-11T07:58:46;102883.38;;;11.08;77.23
63731;BME280;49747;51.334;6.830;2023-02-11T08:01:17;102882.50;;;11.08;78.61
63731;BME280;49747;51.334;6.830;2023-02-11T08:03:44;102881.66;;;11.07;78.18
63731;BME280;49747;51.334;6.830;2023-02-11T08:06:13;102877.38;;;11.03;78.31
63731;BME280;49747;51.334;6.830;2023-02-11T08:08:41;102882.47;;;11.09;78.01
63731;BME280;49747;51.334;6.830;2023-02-11T08:11:13;102881.50;;;10.67;79.22
63731;BME280;49747;51.334;6.830;2023-02-11T08:13:41;102871.38;;;10.29;81.14
63731;BME280;49747;51.334;6.830;2023-02-11T08:16:09;102885.38;;;10.09;82.06
63731;BME280;49747;51.334;6.830;2023-02-11T08:18:42;102877.66;;;10.02;83.28
63731;BME280;49747;51.334;6.830;2023-02-11T08:21:09;102886.44;;;9.79;84.04
63731;BME280;49747;51.334;6.830;2023-02-11T08:23:37;102880.63;;;9.68;84.74
63731;BME280;49747;51.334;6.830;2023-02-11T08:26:18;102885.84;;;9.69;85.25
63731;BME280;49747;51.334;6.830;2023-02-11T08:28:47;102885.38;;;9.58;86.24
63731;BME280;49747;51.334;6.830;2023-02-11T08:31:17;102880.84;;;9.35;87.17
63731;BME280;49747;51.334;6.830;2023-02-11T08:33:44;102898.31;;;9.41;87.15
63731;BME280;49747;51.334;6.830;2023-02-11T08:36:16;102899.34;;;9.36;87.92
63731;BME280;49747;51.334;6.830;2023-02-11T08:38:44;102899.66;;;9.27;88.80
63731;BME280;49747;51.334;6.830;2023-02-11T08:41:11;102903.47;;;9.19;89.09
63731;BME280;49747;51.334;6.830;2023-02-11T08:43:40;102899.81;;;9.21;89.16
63731;BME280;49747;51.334;6.830;2023-02-11T08:46:09;102896.13;;;9.27;88.96
63731;BME280;49747;51.334;6.830;2023-02-11T08:48:37;102904.00;;;9.30;88.98
63731;BME280;49747;51.334;6.830;2023-02-11T08:51:06;102900.84;;;9.17;90.24
63731;BME280;49747;51.334;6.830;2023-02-11T08:53:34;102903.00;;;9.06;90.64
63731;BME280;49747;51.334;6.830;2023-02-11T08:56:01;102907.38;;;9.07;90.44
63731;BME280;49747;51.334;6.830;2023-02-11T08:58:28;102909.97;;;9.08;90.73
63731;BME280;49747;51.334;6.830;2023-02-11T09:00:54;102916.03;;;9.12;90.71
63731;BME280;49747;51.334;6.830;2023-02-11T09:03:21;102909.41;;;8.97;91.14
63731;BME280;49747;51.334;6.830;2023-02-11T09:05:48;102919.41;;;9.17;90.33
63731;BME280;49747;51.334;6.830;2023-02-11T09:08:16;102916.88;;;9.14;90.30
63731;BME280;49747;51.334;6.830;2023-02-11T09:10:44;102918.63;;;9.13;91.15
63731;BME280;49747;51.334;6.830;2023-02-11T09:13:10;102917.50;;;9.22;90.39
63731;BME280;49747;51.334;6.830;2023-02-11T09:15:38;102921.97;;;9.20;90.83
63731;BME280;49747;51.334;6.830;2023-02-11T09:18:04;102933.50;;;9.19;90.56
63731;BME280;49747;51.334;6.830;2023-02-11T09:20:31;102928.28;;;9.16;90.46
63731;BME280;49747;51.334;6.830;2023-02-11T09:22:58;102948.94;;;9.06;91.97
63731;BME280;49747;51.334;6.830;2023-02-11T09:25:25;102939.72;;;9.18;91.33
63731;BME280;49747;51.334;6.830;2023-02-11T09:27:51;102933.16;;;9.02;91.67
63731;BME280;49747;51.334;6.830;2023-02-11T09:30:18;102945.28;;;9.09;91.79
63731;BME280;49747;51.334;6.830;2023-02-11T09:32:45;102943.41;;;9.12;91.84
63731;BME280;49747;51.334;6.830;2023-02-11T09:35:12;102940.97;;;9.06;92.40
63731;BME280;49747;51.334;6.830;2023-02-11T09:37:38;102939.66;;;9.20;91.92
63731;BME280;49747;51.334;6.830;2023-02-11T09:40:05;102942.63;;;10.17;100.00
63731;BME280;49747;51.334;6.830;2023-02-11T09:42:42;102942.91;;;10.59;100.00
63731;BME280;49747;51.334;6.830;2023-02-11T09:45:21;102948.94;;;10.14;90.88
63731;BME280;49747;51.334;6.830;2023-02-11T09:47:55;102952.97;;;9.99;89.95
63731;BME280;49747;51.334;6.830;2023-02-11T09:50:33;102951.59;;;9.87;89.31
63731;BME280;49747;51.334;6.830;2023-02-11T09:53:10;102964.34;;;9.78;89.65
63731;BME280;49747;51.334;6.830;2023-02-11T09:55:42;102968.00;;;9.74;89.35
63731;BME280;49747;51.334;6.830;2023-02-11T09:58:15;102962.09;;;9.66;90.24
63731;BME280;49747;51.334;6.830;2023-02-11T10:00:47;102970.69;;;9.72;89.75
63731;BME280;49747;51.334;6.830;2023-02-11T10:17:59;102975.56;;;9.59;90.79
63731;BME280;49747;51.334;6.830;2023-02-11T10:20:30;102979.78;;;9.65;90.58
63731;BME280;49747;51.334;6.830;2023-02-11T10:23:01;102970.06;;;9.66;90.16
63731;BME280;49747;51.334;6.830;2023-02-11T10:25:38;102980.16;;;9.54;91.03
63731;BME280;49747;51.334;6.830;2023-02-11T10:28:14;102972.88;;;9.59;90.99
63731;BME280;49747;51.334;6.830;2023-02-11T10:30:57;102981.69;;;9.61;90.62
63731;BME280;49747;51.334;6.830;2023-02-11T10:33:48;102988.72;;;9.62;91.00
63731;BME280;49747;51.334;6.830;2023-02-11T10:36:17;102985.06;;;9.67;90.42
63731;BME280;49747;51.334;6.830;2023-02-11T10:38:44;102986.69;;;9.43;91.17
63731;BME280;49747;51.334;6.830;2023-02-11T10:41:25;102989.91;;;9.54;91.68
63731;BME280;49747;51.334;6.830;2023-02-11T10:43:53;102985.09;;;9.65;91.27
63731;BME280;49747;51.334;6.830;2023-02-11T10:46:23;102989.78;;;9.57;91.15
63731;BME280;49747;51.334;6.830;2023-02-11T10:48:52;102994.13;;;9.59;91.17
63731;BME280;49747;51.334;6.830;2023-02-11T10:51:27;102984.38;;;9.60;91.41
63731;BME280;49747;51.334;6.830;2023-02-11T10:56:32;102965.78;;;9.60;91.24
63731;BME280;49747;51.334;6.830;2023-02-11T11:01:52;102986.72;;;9.69;91.02
63731;BME280;49747;51.334;6.830;2023-02-11T11:04:43;102993.34;;;9.56;91.87
63731;BME280;49747;51.334;6.830;2023-02-11T11:12:32;102994.84;;;9.65;91.73
63731;BME280;49747;51.334;6.830;2023-02-11T11:15:24;102997.63;;;9.61;91.94
63731;BME280;49747;51.334;6.830;2023-02-11T11:18:11;102999.72;;;9.50;92.22
63731;BME280;49747;51.334;6.830;2023-02-11T11:20:59;102996.69;;;9.62;91.91
63731;BME280;49747;51.334;6.830;2023-02-11T11:23:28;102996.31;;;9.47;92.35
63731;BME280;49747;51.334;6.830;2023-02-11T11:31:20;102998.03;;;9.48;92.62
63731;BME280;49747;51.334;6.830;2023-02-11T11:33:50;102991.53;;;9.58;92.35
63731;BME280;49747;51.334;6.830;2023-02-11T11:36:22;103001.31;;;9.56;92.63
63731;BME280;49747;51.334;6.830;2023-02-11T11:38:57;102998.97;;;9.45;92.96
63731;BME280;49747;51.334;6.830;2023-02-11T11:41:28;102995.91;;;9.59;92.63
63731;BME280;49747;51.334;6.830;2023-02-11T11:47:11;102996.34;;;9.45;93.11
63731;BME280;49747;51.334;6.830;2023-02-11T11:49:49;102998.75;;;9.53;93.08
63731;BME280;49747;51.334;6.830;2023-02-11T11:53:04;102993.25;;;9.59;93.54
63731;BME280;49747;51.334;6.830;2023-02-11T11:55:44;102986.22;;;9.58;92.98
63731;BME280;49747;51.334;6.830;2023-02-11T11:58:17;102994.84;;;9.65;92.65
63731;BME280;49747;51.334;6.830;2023-02-11T12:14:26;102982.66;;;9.85;91.83
63731;BME280;49747;51.334;6.830;2023-02-11T12:17:25;102990.50;;;9.88;91.45
63731;BME280;49747;51.334;6.830;2023-02-11T12:20:16;102990.50;;;9.88;91.60
63731;BME280;49747;51.334;6.830;2023-02-11T12:25:24;102980.09;;;9.82;92.40
63731;BME280;49747;51.334;6.830;2023-02-11T12:28:02;102956.16;;;9.84;91.80
63731;BME280;49747;51.334;6.830;2023-02-11T12:33:28;102984.06;;;9.96;91.61
63731;BME280;49747;51.334;6.830;2023-02-11T12:36:01;102972.75;;;9.91;91.95
63731;BME280;49747;51.334;6.830;2023-02-11T12:50:03;102969.28;;;9.88;92.26
63731;BME280;49747;51.334;6.830;2023-02-11T12:52:46;102968.66;;;9.80;92.63
63731;BME280;49747;51.334;6.830;2023-02-11T12:55:26;102979.84;;;9.90;92.19
63731;BME280;49747;51.334;6.830;2023-02-11T12:57:55;102973.69;;;9.90;91.87
63731;BME280;49747;51.334;6.830;2023-02-11T13:00:30;102966.41;;;9.95;91.61
63731;BME280;49747;51.334;6.830;2023-02-11T13:03:09;102961.00;;;9.98;91.47
63731;BME280;49747;51.334;6.830;2023-02-11T13:06:13;102961.38;;;9.87;92.58
63731;BME280;49747;51.334;6.830;2023-02-11T13:08:45;102953.34;;;9.88;92.61
63731;BME280;49747;51.334;6.830;2023-02-11T13:11:41;102956.41;;;10.03;91.84
63731;BME280;49747;51.334;6.830;2023-02-11T13:14:23;102954.41;;;10.09;91.80
63731;BME280;49747;51.334;6.830;2023-02-11T13:16:53;102954.28;;;10.12;90.94
63731;BME280;49747;51.334;6.830;2023-02-11T13:19:38;102956.03;;;10.14;91.28
63731;BME280;49747;51.334;6.830;2023-02-11T13:22:29;102961.44;;;10.10;91.62
63731;BME280;49747;51.334;6.830;2023-02-11T13:25:13;102956.03;;;10.14;91.50
63731;BME280;49747;51.334;6.830;2023-02-11T13:27:53;102955.91;;;10.17;91.42
63731;BME280;49747;51.334;6.830;2023-02-11T13:30:32;102960.47;;;10.13;91.92
63731;BME280;49747;51.334;6.830;2023-02-11T13:33:15;102963.94;;;10.15;91.40
63731;BME280;49747;51.334;6.830;2023-02-11T13:35:47;102963.84;;;10.18;91.33
63731;BME280;49747;51.334;6.830;2023-02-11T13:38:53;102953.97;;;10.22;90.57
63731;BME280;49747;51.334;6.830;2023-02-11T13:41:25;102955.97;;;10.15;91.48
63731;BME280;49747;51.334;6.830;2023-02-11T13:46:51;102959.56;;;10.14;91.34
63731;BME280;49747;51.334;6.830;2023-02-11T13:49:22;102963.78;;;10.20;91.11
63731;BME280;49747;51.334;6.830;2023-02-11T13:51:50;102953.41;;;10.12;91.39
63731;BME280;49747;51.334;6.830;2023-02-11T13:54:24;102955.16;;;10.13;91.32
63731;BME280;49747;51.334;6.830;2023-02-11T13:59:50;102962.97;;;10.18;91.56
63731;BME280;49747;51.334;6.830;2023-02-11T14:02:40;102956.06;;;10.12;92.04
63731;BME280;49747;51.334;6.830;2023-02-11T14:05:31;102960.31;;;10.18;91.64
63731;BME280;49747;51.334;6.830;2023-02-11T14:08:22;102960.03;;;10.75;100.00
63731;BME280;49747;51.334;6.830;2023-02-11T14:19:45;102959.63;;;10.86;89.82
63731;BME280;49747;51.334;6.830;2023-02-11T14:22:27;102962.84;;;10.71;89.78
63731;BME280;49747;51.334;6.830;2023-02-11T14:27:45;102958.84;;;10.59;90.53
63731;BME280;49747;51.334;6.830;2023-02-11T14:38:44;102952.19;;;10.47;91.15
63731;BME280;49747;51.334;6.830;2023-02-11T14:41:22;102957.34;;;10.52;90.48
63731;BME280;49747;51.334;6.830;2023-02-11T14:43:54;102963.34;;;10.57;90.76
63731;BME280;49747;51.334;6.830;2023-02-11T14:46:25;102962.28;;;10.63;90.26
63731;BME280;49747;51.334;6.830;2023-02-11T14:48:58;102962.84;;;10.47;91.23
63731;BME280;49747;51.334;6.830;2023-02-11T14:51:27;102963.69;;;10.48;91.28
63731;BME280;49747;51.334;6.830;2023-02-11T14:54:02;102967.97;;;10.52;90.60
63731;BME280;49747;51.334;6.830;2023-02-11T14:56:32;102961.59;;;10.57;90.40
63731;BME280;49747;51.334;6.830;2023-02-11T14:59:02;102967.78;;;10.58;90.54
63731;BME280;49747;51.334;6.830;2023-02-11T15:01:31;102965.03;;;10.59;89.89
63731;BME280;49747;51.334;6.830;2023-02-11T15:04:02;102964.88;;;10.64;90.03
63731;BME280;49747;51.334;6.830;2023-02-11T15:06:36;102966.16;;;10.54;90.80
63731;BME280;49747;51.334;6.830;2023-02-11T15:09:15;102970.34;;;10.59;90.12